sensor_id;sensor_type;location;lat;lon;timestamp;temperature;humidity
60353;DHT22;46196;52.970;6.954;2024-02-23T00:02:15;5.50;99.90
60353;DHT22;46196;52.970;6.954;2024-02-23T00:04:41;5.50;99.90
60353;DHT22;46196;52.970;6.954;2024-02-23T00:07:07;5.50;99.90
60353;DHT22;46196;52.970;6.954;2024-02-23T00:09:33;5.50;99.90
60353;DHT22;46196;52.970;6.954;2024-02-23T00:11:59;5.50;99.90
60353;DHT22;46196;52.970;6.954;2024-02-23T01:13:01;4.40;99.90
60353;DHT22;46196;52.970;6.954;2024-02-23T01:20:19;4.40;99.90
60353;DHT22;46196;52.970;6.954;2024-02-23T01:22:45;3.80;99.90
60353;DHT22;46196;52.970;6.954;2024-02-23T01:25:11;3.70;99.90
60353;DHT22;46196;52.970;6.954;2024-02-23T01:32:29;3.50;99.90
60353;DHT22;46196;52.970;6.954;2024-02-23T01:34:54;3.50;99.90
60353;DHT22;46196;52.970;6.954;2024-02-23T01:37:20;3.60;99.90
60353;DHT22;46196;52.970;6.954;2024-02-23T01:39:46;3.60;99.90
60353;DHT22;46196;52.970;6.954;2024-02-23T01:42:12;3.60;99.90
60353;DHT22;46196;52.970;6.954;2024-02-23T01:44:37;3.60;99.90
60353;DHT22;46196;52.970;6.954;2024-02-23T01:47:03;3.70;99.90
60353;DHT22;46196;52.970;6.954;2024-02-23T01:49:29;3.70;99.90
60353;DHT22;46196;52.970;6.954;2024-02-23T01:51:57;3.80;99.90
60353;DHT22;46196;52.970;6.954;2024-02-23T01:54:24;3.80;99.90
60353;DHT22;46196;52.970;6.954;2024-02-23T01:56:51;3.90;99.90
60353;DHT22;46196;52.970;6.954;2024-02-23T01:59:17;3.90;99.90
60353;DHT22;46196;52.970;6.954;2024-02-23T02:01:43;3.90;99.90
60353;DHT22;46196;52.970;6.954;2024-02-23T02:04:09;4.00;99.90
60353;DHT22;46196;52.970;6.954;2024-02-23T02:06:36;4.00;99.90
60353;DHT22;46196;52.970;6.954;2024-02-23T02:09:02;4.00;99.90
60353;DHT22;46196;52.970;6.954;2024-02-23T02:11:28;4.00;99.90
60353;DHT22;46196;52.970;6.954;2024-02-23T02:13:53;4.10;99.90
60353;DHT22;46196;52.970;6.954;2024-02-23T02:16:19;4.10;99.90
60353;DHT22;46196;52.970;6.954;2024-02-23T02:18:45;4.20;99.90
60353;DHT22;46196;52.970;6.954;2024-02-23T02:21:11;4.20;99.90
60353;DHT22;46196;52.970;6.954;2024-02-23T02:23:37;4.30;99.90
60353;DHT22;46196;52.970;6.954;2024-02-23T02:26:03;4.30;99.90
60353;DHT22;46196;52.970;6.954;2024-02-23T02:28:29;4.40;99.90
60353;DHT22;46196;52.970;6.954;2024-02-23T02:30:55;4.40;99.90
60353;DHT22;46196;52.970;6.954;2024-02-23T02:33:21;4.40;99.90
60353;DHT22;46196;52.970;6.954;2024-02-23T02:35:47;4.40;99.90
60353;DHT22;46196;52.970;6.954;2024-02-23T02:38:13;4.40;99.90
60353;DHT22;46196;52.970;6.954;2024-02-23T02:40:39;4.50;99.90
60353;DHT22;46196;52.970;6.954;2024-02-23T02:43:05;4.50;99.90
60353;DHT22;46196;52.970;6.954;2024-02-23T02:45:32;4.50;99.90
60353;DHT22;46196;52.970;6.954;2024-02-23T02:47:59;4.50;99.90
60353;DHT22;46196;52.970;6.954;2024-02-23T02:50:25;4.50;99.90
60353;DHT22;46196;52.970;6.954;2024-02-23T02:52:51;4.60;99.90
60353;DHT22;46196;52.970;6.954;2024-02-23T02:55:16;4.70;99.90
60353;DHT22;46196;52.970;6.954;2024-02-23T02:57:44;4.70;99.90
60353;DHT22;46196;52.970;6.954;2024-02-23T03:00:10;4.70;99.90
60353;DHT22;46196;52.970;6.954;2024-02-23T03:02:36;4.70;99.90
60353;DHT22;46196;52.970;6.954;2024-02-23T03:05:02;4.80;99.90
60353;DHT22;46196;52.970;6.954;2024-02-23T03:07:28;4.80;99.90
60353;DHT22;46196;52.970;6.954;2024-02-23T03:09:53;4.80;99.90
60353;DHT22;46196;52.970;6.954;2024-02-23T03:12:19;4.80;99.90
60353;DHT22;46196;52.970;6.954;2024-02-23T03:14:45;4.90;99.90
60353;DHT22;46196;52.970;6.954;2024-02-23T03:17:11;4.90;99.90
60353;DHT22;46196;52.970;6.954;2024-02-23T03:19:37;4.90;99.90
60353;DHT22;46196;52.970;6.954;2024-02-23T03:22:04;4.90;99.90
60353;DHT22;46196;52.970;6.954;2024-02-23T03:24:29;4.90;99.90
60353;DHT22;46196;52.970;6.954;2024-02-23T03:26:55;4.90;99.90
60353;DHT22;46196;52.970;6.954;2024-02-23T03:29:22;4.90;99.90
60353;DHT22;46196;52.970;6.954;2024-02-23T03:31:55;4.90;99.90
60353;DHT22;46196;52.970;6.954;2024-02-23T03:34:21;4.90;99.90
60353;DHT22;46196;52.970;6.954;2024-02-23T03:36:46;4.90;99.90
60353;DHT22;46196;52.970;6.954;2024-02-23T03:39:13;4.90;99.90
60353;DHT22;46196;52.970;6.954;2024-02-23T03:41:39;5.00;99.90
60353;DHT22;46196;52.970;6.954;2024-02-23T03:44:05;4.90;99.90
60353;DHT22;46196;52.970;6.954;2024-02-23T03:46:30;4.90;99.90
60353;DHT22;46196;52.970;6.954;2024-02-23T03:48:56;4.90;99.90
60353;DHT22;46196;52.970;6.954;2024-02-23T03:51:23;4.80;99.90
60353;DHT22;46196;52.970;6.954;2024-02-23T03:53:49;4.80;99.90
60353;DHT22;46196;52.970;6.954;2024-02-23T03:56:15;4.70;99.90
60353;DHT22;46196;52.970;6.954;2024-02-23T03:58:41;4.70;99.90
60353;DHT22;46196;52.970;6.954;2024-02-23T04:01:07;4.70;99.90
60353;DHT22;46196;52.970;6.954;2024-02-23T04:03:33;4.60;99.90
60353;DHT22;46196;52.970;6.954;2024-02-23T04:05:59;4.60;99.90
60353;DHT22;46196;52.970;6.954;2024-02-23T04:08:24;4.60;99.90
60353;DHT22;46196;52.970;6.954;2024-02-23T04:10:50;4.60;99.90
60353;DHT22;46196;52.970;6.954;2024-02-23T04:13:16;4.60;99.90
60353;DHT22;46196;52.970;6.954;2024-02-23T04:15:43;4.60;99.90
60353;DHT22;46196;52.970;6.954;2024-02-23T04:18:09;4.70;99.90
60353;DHT22;46196;52.970;6.954;2024-02-23T04:20:35;4.70;99.90
60353;DHT22;46196;52.970;6.954;2024-02-23T04:23:01;4.60;99.90
60353;DHT22;46196;52.970;6.954;2024-02-23T04:25:27;4.70;99.90
60353;DHT22;46196;52.970;6.954;2024-02-23T04:27:52;4.70;99.90
60353;DHT22;46196;52.970;6.954;2024-02-23T04:30:18;4.60;99.90
60353;DHT22;46196;52.970;6.954;2024-02-23T04:32:44;4.60;99.90
60353;DHT22;46196;52.970;6.954;2024-02-23T04:35:10;4.60;99.90
60353;DHT22;46196;52.970;6.954;2024-02-23T04:37:35;4.60;99.90
60353;DHT22;46196;52.970;6.954;2024-02-23T04:40:01;4.60;99.90
60353;DHT22;46196;52.970;6.954;2024-02-23T04:42:27;4.50;99.90
60353;DHT22;46196;52.970;6.954;2024-02-23T04:44:53;4.60;99.90
60353;DHT22;46196;52.970;6.954;2024-02-23T04:47:20;4.50;99.90
60353;DHT22;46196;52.970;6.954;2024-02-23T04:49:46;4.60;99.90
60353;DHT22;46196;52.970;6.954;2024-02-23T04:52:12;4.50;99.90
60353;DHT22;46196;52.970;6.954;2024-02-23T04:54:37;4.50;99.90
60353;DHT22;46196;52.970;6.954;2024-02-23T04:57:03;4.50;99.90
60353;DHT22;46196;52.970;6.954;2024-02-23T04:59:29;4.50;99.90
60353;DHT22;46196;52.970;6.954;2024-02-23T05:01:57;4.50;99.90
60353;DHT22;46196;52.970;6.954;2024-02-23T05:04:23;4.50;99.90
60353;DHT22;46196;52.970;6.954;2024-02-23T05:06:48;4.50;99.90
60353;DHT22;46196;52.970;6.954;2024-02-23T05:09:14;4.50;99.90
60353;DHT22;46196;52.970;6.954;2024-02-23T05:11:40;4.60;99.90
60353;DHT22;46196;52.970;6.954;2024-02-23T05:14:05;4.50;99.90
60353;DHT22;46196;52.970;6.954;2024-02-23T05:16:31;4.50;99.90
60353;DHT22;46196;52.970;6.954;2024-02-23T05:18:57;4.50;99.90
60353;DHT22;46196;52.970;6.954;2024-02-23T05:21:23;4.50;99.90
60353;DHT22;46196;52.970;6.954;2024-02-23T05:23:49;4.50;99.90
60353;DHT22;46196;52.970;6.954;2024-02-23T05:26:15;4.60;99.90
60353;DHT22;46196;52.970;6.954;2024-02-23T05:28:40;4.70;99.90
60353;DHT22;46196;52.970;6.954;2024-02-23T05:31:07;4.70;99.90
60353;DHT22;46196;52.970;6.954;2024-02-23T05:33:32;6.20;99.90
60353;DHT22;46196;52.970;6.954;2024-02-23T05:35:58;4.70;99.90
60353;DHT22;46196;52.970;6.954;2024-02-23T05:38:23;4.70;99.90
60353;DHT22;46196;52.970;6.954;2024-02-23T05:40:49;4.80;99.90
60353;DHT22;46196;52.970;6.954;2024-02-23T05:43:15;4.80;99.90
60353;DHT22;46196;52.970;6.954;2024-02-23T05:45:40;4.80;99.90
60353;DHT22;46196;52.970;6.954;2024-02-23T05:48:06;4.90;99.90
60353;DHT22;46196;52.970;6.954;2024-02-23T05:50:32;4.90;99.90
60353;DHT22;46196;52.970;6.954;2024-02-23T05:52:58;5.00;99.90
60353;DHT22;46196;52.970;6.954;2024-02-23T05:55:24;5.00;99.90
60353;DHT22;46196;52.970;6.954;2024-02-23T05:57:50;4.90;99.90
60353;DHT22;46196;52.970;6.954;2024-02-23T06:00:18;4.90;99.90
60353;DHT22;46196;52.970;6.954;2024-02-23T06:02:45;4.90;99.90
60353;DHT22;46196;52.970;6.954;2024-02-23T06:05:12;4.90;99.90
60353;DHT22;46196;52.970;6.954;2024-02-23T06:07:37;4.90;99.90
60353;DHT22;46196;52.970;6.954;2024-02-23T06:10:03;4.90;99.90
60353;DHT22;46196;52.970;6.954;2024-02-23T06:12:30;4.90;99.90
60353;DHT22;46196;52.970;6.954;2024-02-23T06:14:56;4.80;99.90
60353;DHT22;46196;52.970;6.954;2024-02-23T06:17:23;4.80;99.90
60353;DHT22;46196;52.970;6.954;2024-02-23T06:19:49;4.80;99.90
60353;DHT22;46196;52.970;6.954;2024-02-23T06:22:14;4.80;99.90
60353;DHT22;46196;52.970;6.954;2024-02-23T06:24:42;4.80;99.90
60353;DHT22;46196;52.970;6.954;2024-02-23T06:27:08;4.80;99.90
60353;DHT22;46196;52.970;6.954;2024-02-23T06:29:34;4.80;99.90
60353;DHT22;46196;52.970;6.954;2024-02-23T06:32:00;4.80;99.90
60353;DHT22;46196;52.970;6.954;2024-02-23T06:34:28;4.70;99.90
60353;DHT22;46196;52.970;6.954;2024-02-23T06:36:54;4.70;99.90
60353;DHT22;46196;52.970;6.954;2024-02-23T06:39:19;4.60;99.90
60353;DHT22;46196;52.970;6.954;2024-02-23T06:41:45;4.60;99.90
60353;DHT22;46196;52.970;6.954;2024-02-23T06:44:11;4.60;99.90
60353;DHT22;46196;52.970;6.954;2024-02-23T06:46:37;4.70;99.90
60353;DHT22;46196;52.970;6.954;2024-02-23T06:49:03;4.60;99.90
60353;DHT22;46196;52.970;6.954;2024-02-23T06:51:31;4.70;99.90
60353;DHT22;46196;52.970;6.954;2024-02-23T06:53:57;4.70;99.90
60353;DHT22;46196;52.970;6.954;2024-02-23T06:56:23;4.80;99.90
60353;DHT22;46196;52.970;6.954;2024-02-23T06:58:49;4.80;99.90
60353;DHT22;46196;52.970;6.954;2024-02-23T07:01:14;4.80;99.90
60353;DHT22;46196;52.970;6.954;2024-02-23T07:03:40;4.80;99.90
60353;DHT22;46196;52.970;6.954;2024-02-23T07:06:08;4.80;99.90
60353;DHT22;46196;52.970;6.954;2024-02-23T07:08:35;4.80;99.90
60353;DHT22;46196;52.970;6.954;2024-02-23T07:11:01;4.80;99.90
60353;DHT22;46196;52.970;6.954;2024-02-23T07:13:27;4.80;99.90
60353;DHT22;46196;52.970;6.954;2024-02-23T07:15:53;4.90;99.90
60353;DHT22;46196;52.970;6.954;2024-02-23T07:18:21;4.90;99.90
60353;DHT22;46196;52.970;6.954;2024-02-23T07:20:47;4.90;99.90
60353;DHT22;46196;52.970;6.954;2024-02-23T07:23:12;5.00;99.90
60353;DHT22;46196;52.970;6.954;2024-02-23T07:25:38;5.00;99.90
60353;DHT22;46196;52.970;6.954;2024-02-23T07:28:04;5.00;99.90
60353;DHT22;46196;52.970;6.954;2024-02-23T07:30:30;5.10;99.90
60353;DHT22;46196;52.970;6.954;2024-02-23T07:32:55;5.10;99.90
60353;DHT22;46196;52.970;6.954;2024-02-23T07:35:21;5.20;99.90
60353;DHT22;46196;52.970;6.954;2024-02-23T07:37:47;5.20;99.90
60353;DHT22;46196;52.970;6.954;2024-02-23T07:40:12;5.20;99.90
60353;DHT22;46196;52.970;6.954;2024-02-23T07:42:38;5.30;99.90
60353;DHT22;46196;52.970;6.954;2024-02-23T07:45:05;5.30;99.90
60353;DHT22;46196;52.970;6.954;2024-02-23T07:47:31;5.30;99.90
60353;DHT22;46196;52.970;6.954;2024-02-23T07:49:58;5.40;99.90
60353;DHT22;46196;52.970;6.954;2024-02-23T07:52:24;5.30;99.90
60353;DHT22;46196;52.970;6.954;2024-02-23T07:54:52;5.40;99.90
60353;DHT22;46196;52.970;6.954;2024-02-23T07:57:21;5.40;99.90
60353;DHT22;46196;52.970;6.954;2024-02-23T07:59:47;5.50;99.90
60353;DHT22;46196;52.970;6.954;2024-02-23T08:02:13;5.60;99.90
60353;DHT22;46196;52.970;6.954;2024-02-23T08:04:39;5.40;99.90
60353;DHT22;46196;52.970;6.954;2024-02-23T08:07:05;5.40;99.90
60353;DHT22;46196;52.970;6.954;2024-02-23T08:09:30;5.50;99.90
60353;DHT22;46196;52.970;6.954;2024-02-23T08:11:56;5.50;99.90
60353;DHT22;46196;52.970;6.954;2024-02-23T08:14:22;5.50;99.90
60353;DHT22;46196;52.970;6.954;2024-02-23T08:16:48;5.60;99.90
60353;DHT22;46196;52.970;6.954;2024-02-23T08:19:16;5.50;99.90
60353;DHT22;46196;52.970;6.954;2024-02-23T08:21:44;5.60;99.90
60353;DHT22;46196;52.970;6.954;2024-02-23T08:24:10;5.60;99.90
60353;DHT22;46196;52.970;6.954;2024-02-23T08:26:36;5.60;99.90
60353;DHT22;46196;52.970;6.954;2024-02-23T08:29:03;5.70;99.90
60353;DHT22;46196;52.970;6.954;2024-02-23T08:31:30;5.70;99.90
60353;DHT22;46196;52.970;6.954;2024-02-23T08:33:56;5.70;99.90
60353;DHT22;46196;52.970;6.954;2024-02-23T08:36:21;5.70;99.90
60353;DHT22;46196;52.970;6.954;2024-02-23T08:38:47;5.70;99.90
60353;DHT22;46196;52.970;6.954;2024-02-23T08:41:13;5.80;99.90
60353;DHT22;46196;52.970;6.954;2024-02-23T08:43:38;5.80;99.90
60353;DHT22;46196;52.970;6.954;2024-02-23T08:46:04;5.90;99.90
60353;DHT22;46196;52.970;6.954;2024-02-23T08:48:30;5.90;99.90
60353;DHT22;46196;52.970;6.954;2024-02-23T08:50:56;5.90;99.90
60353;DHT22;46196;52.970;6.954;2024-02-23T08:53:21;6.00;99.90
60353;DHT22;46196;52.970;6.954;2024-02-23T08:55:47;6.00;99.90
60353;DHT22;46196;52.970;6.954;2024-02-23T08:58:13;6.10;99.90
60353;DHT22;46196;52.970;6.954;2024-02-23T09:00:38;6.20;99.90
60353;DHT22;46196;52.970;6.954;2024-02-23T09:03:04;6.20;99.90
60353;DHT22;46196;52.970;6.954;2024-02-23T09:05:30;6.30;99.90
60353;DHT22;46196;52.970;6.954;2024-02-23T09:07:56;6.30;99.90
60353;DHT22;46196;52.970;6.954;2024-02-23T09:10:21;6.40;99.90
60353;DHT22;46196;52.970;6.954;2024-02-23T09:12:47;6.50;99.90
60353;DHT22;46196;52.970;6.954;2024-02-23T09:15:13;6.50;99.90
60353;DHT22;46196;52.970;6.954;2024-02-23T09:17:41;6.70;99.90
60353;DHT22;46196;52.970;6.954;2024-02-23T09:20:07;6.70;99.90
60353;DHT22;46196;52.970;6.954;2024-02-23T09:22:33;6.70;99.90
60353;DHT22;46196;52.970;6.954;2024-02-23T09:24:59;6.70;99.90
60353;DHT22;46196;52.970;6.954;2024-02-23T09:27:25;6.80;99.90
60353;DHT22;46196;52.970;6.954;2024-02-23T09:29:52;6.80;99.90
60353;DHT22;46196;52.970;6.954;2024-02-23T09:32:18;6.90;99.90
60353;DHT22;46196;52.970;6.954;2024-02-23T09:34:44;7.00;99.90
60353;DHT22;46196;52.970;6.954;2024-02-23T09:37:09;7.00;99.90
60353;DHT22;46196;52.970;6.954;2024-02-23T09:39:35;7.20;99.90
60353;DHT22;46196;52.970;6.954;2024-02-23T09:42:01;7.40;99.90
60353;DHT22;46196;52.970;6.954;2024-02-23T09:44:34;7.60;99.90
60353;DHT22;46196;52.970;6.954;2024-02-23T09:47:03;7.80;99.90
60353;DHT22;46196;52.970;6.954;2024-02-23T09:49:40;7.80;99.90
60353;DHT22;46196;52.970;6.954;2024-02-23T09:52:10;7.80;99.90
60353;DHT22;46196;52.970;6.954;2024-02-23T09:54:38;7.80;99.90
60353;DHT22;46196;52.970;6.954;2024-02-23T09:57:07;7.70;99.90
60353;DHT22;46196;52.970;6.954;2024-02-23T09:59:34;7.60;99.90
60353;DHT22;46196;52.970;6.954;2024-02-23T10:02:00;7.50;99.90
60353;DHT22;46196;52.970;6.954;2024-02-23T10:04:27;7.40;99.90
60353;DHT22;46196;52.970;6.954;2024-02-23T10:06:55;7.40;99.90
60353;DHT22;46196;52.970;6.954;2024-02-23T10:09:21;7.30;99.90
60353;DHT22;46196;52.970;6.954;2024-02-23T10:11:52;7.30;99.90
60353;DHT22;46196;52.970;6.954;2024-02-23T10:14:19;7.30;99.90
60353;DHT22;46196;52.970;6.954;2024-02-23T10:16:45;7.30;99.90
60353;DHT22;46196;52.970;6.954;2024-02-23T10:19:10;7.40;99.90
60353;DHT22;46196;52.970;6.954;2024-02-23T10:21:36;7.30;99.90
60353;DHT22;46196;52.970;6.954;2024-02-23T10:24:01;7.30;99.90
60353;DHT22;46196;52.970;6.954;2024-02-23T10:26:27;7.30;99.90
60353;DHT22;46196;52.970;6.954;2024-02-23T10:28:53;7.30;99.90
60353;DHT22;46196;52.970;6.954;2024-02-23T10:31:19;7.40;99.90
60353;DHT22;46196;52.970;6.954;2024-02-23T10:33:45;7.30;99.90
60353;DHT22;46196;52.970;6.954;2024-02-23T10:36:15;7.30;99.90
60353;DHT22;46196;52.970;6.954;2024-02-23T10:38:45;7.40;99.90
60353;DHT22;46196;52.970;6.954;2024-02-23T10:41:13;7.40;99.90
60353;DHT22;46196;52.970;6.954;2024-02-23T10:43:48;7.30;99.90
60353;DHT22;46196;52.970;6.954;2024-02-23T10:46:15;7.40;99.90
60353;DHT22;46196;52.970;6.954;2024-02-23T10:48:44;7.40;99.90
60353;DHT22;46196;52.970;6.954;2024-02-23T10:51:14;7.60;99.90
60353;DHT22;46196;52.970;6.954;2024-02-23T10:53:40;7.40;99.90
60353;DHT22;46196;52.970;6.954;2024-02-23T10:56:07;7.40;99.90
60353;DHT22;46196;52.970;6.954;2024-02-23T10:58:33;7.40;99.90
60353;DHT22;46196;52.970;6.954;2024-02-23T11:01:04;7.40;99.90
60353;DHT22;46196;52.970;6.954;2024-02-23T11:03:33;7.40;99.90
60353;DHT22;46196;52.970;6.954;2024-02-23T11:06:00;7.40;99.90
60353;DHT22;46196;52.970;6.954;2024-02-23T11:08:29;7.40;99.90
60353;DHT22;46196;52.970;6.954;2024-02-23T11:10:55;7.40;99.90
60353;DHT22;46196;52.970;6.954;2024-02-23T11:13:30;7.40;99.90
60353;DHT22;46196;52.970;6.954;2024-02-23T11:16:07;7.40;99.90
60353;DHT22;46196;52.970;6.954;2024-02-23T11:18:35;7.40;99.90
60353;DHT22;46196;52.970;6.954;2024-02-23T11:21:03;7.50;99.90
60353;DHT22;46196;52.970;6.954;2024-02-23T11:23:43;7.50;99.90
60353;DHT22;46196;52.970;6.954;2024-02-23T11:26:12;7.40;99.90
60353;DHT22;46196;52.970;6.954;2024-02-23T11:28:47;7.40;99.90
60353;DHT22;46196;52.970;6.954;2024-02-23T11:31:14;7.30;99.90
60353;DHT22;46196;52.970;6.954;2024-02-23T11:33:40;7.30;99.90
60353;DHT22;46196;52.970;6.954;2024-02-23T11:36:08;7.30;99.90
60353;DHT22;46196;52.970;6.954;2024-02-23T11:38:34;7.40;99.90
60353;DHT22;46196;52.970;6.954;2024-02-23T11:41:00;7.40;99.90
60353;DHT22;46196;52.970;6.954;2024-02-23T11:43:27;7.50;99.90
60353;DHT22;46196;52.970;6.954;2024-02-23T11:45:53;7.60;99.90
60353;DHT22;46196;52.970;6.954;2024-02-23T11:48:19;7.60;99.90
60353;DHT22;46196;52.970;6.954;2024-02-23T11:50:48;7.70;99.90
60353;DHT22;46196;52.970;6.954;2024-02-23T11:53:14;7.70;99.90
60353;DHT22;46196;52.970;6.954;2024-02-23T11:55:40;7.70;99.90
60353;DHT22;46196;52.970;6.954;2024-02-23T11:58:06;7.80;99.90
60353;DHT22;46196;52.970;6.954;2024-02-23T12:00:32;7.80;99.90
60353;DHT22;46196;52.970;6.954;2024-02-23T12:02:58;7.90;99.90
60353;DHT22;46196;52.970;6.954;2024-02-23T12:05:24;7.60;99.90
60353;DHT22;46196;52.970;6.954;2024-02-23T12:07:50;7.50;99.90
60353;DHT22;46196;52.970;6.954;2024-02-23T12:10:16;7.40;99.90
60353;DHT22;46196;52.970;6.954;2024-02-23T12:12:42;7.40;99.90
60353;DHT22;46196;52.970;6.954;2024-02-23T12:15:08;7.30;99.90
60353;DHT22;46196;52.970;6.954;2024-02-23T12:17:37;7.20;99.90
60353;DHT22;46196;52.970;6.954;2024-02-23T12:20:11;7.10;99.90
60353;DHT22;46196;52.970;6.954;2024-02-23T12:22:37;7.10;99.90
60353;DHT22;46196;52.970;6.954;2024-02-23T12:25:02;7.10;99.90
60353;DHT22;46196;52.970;6.954;2024-02-23T12:27:28;7.10;99.90
60353;DHT22;46196;52.970;6.954;2024-02-23T12:29:55;7.10;99.90
60353;DHT22;46196;52.970;6.954;2024-02-23T12:32:21;7.10;99.90
60353;DHT22;46196;52.970;6.954;2024-02-23T12:34:47;7.00;99.90
60353;DHT22;46196;52.970;6.954;2024-02-23T12:37:17;7.00;99.90
60353;DHT22;46196;52.970;6.954;2024-02-23T12:39:43;6.90;99.90
60353;DHT22;46196;52.970;6.954;2024-02-23T12:42:09;6.90;99.90
60353;DHT22;46196;52.970;6.954;2024-02-23T12:44:35;6.90;99.90
60353;DHT22;46196;52.970;6.954;2024-02-23T12:47:01;6.90;99.90
60353;DHT22;46196;52.970;6.954;2024-02-23T12:49:27;6.90;99.90
60353;DHT22;46196;52.970;6.954;2024-02-23T12:51:53;6.90;99.90
60353;DHT22;46196;52.970;6.954;2024-02-23T12:54:18;6.90;99.90
60353;DHT22;46196;52.970;6.954;2024-02-23T12:56:44;6.80;99.90
60353;DHT22;46196;52.970;6.954;2024-02-23T12:59:10;6.80;99.90
60353;DHT22;46196;52.970;6.954;2024-02-23T13:01:37;6.80;99.90
60353;DHT22;46196;52.970;6.954;2024-02-23T13:04:04;6.80;99.90
60353;DHT22;46196;52.970;6.954;2024-02-23T13:06:39;6.90;99.90
60353;DHT22;46196;52.970;6.954;2024-02-23T13:09:05;6.80;99.90
60353;DHT22;46196;52.970;6.954;2024-02-23T13:11:34;6.90;99.90
60353;DHT22;46196;52.970;6.954;2024-02-23T13:14:00;6.90;99.90
60353;DHT22;46196;52.970;6.954;2024-02-23T13:16:27;6.90;99.90
60353;DHT22;46196;52.970;6.954;2024-02-23T13:18:53;6.80;99.90
60353;DHT22;46196;52.970;6.954;2024-02-23T13:21:18;6.90;99.90
60353;DHT22;46196;52.970;6.954;2024-02-23T13:23:44;6.90;99.90
60353;DHT22;46196;52.970;6.954;2024-02-23T13:26:10;6.90;99.90
60353;DHT22;46196;52.970;6.954;2024-02-23T13:28:36;6.90;99.90
60353;DHT22;46196;52.970;6.954;2024-02-23T13:31:02;6.90;99.90
60353;DHT22;46196;52.970;6.954;2024-02-23T13:33:28;6.90;99.90
60353;DHT22;46196;52.970;6.954;2024-02-23T13:35:54;6.90;99.90
60353;DHT22;46196;52.970;6.954;2024-02-23T13:38:21;6.90;99.90
60353;DHT22;46196;52.970;6.954;2024-02-23T13:40:47;7.00;99.90
60353;DHT22;46196;52.970;6.954;2024-02-23T13:43:12;7.00;99.90
60353;DHT22;46196;52.970;6.954;2024-02-23T13:45:51;7.10;99.90
60353;DHT22;46196;52.970;6.954;2024-02-23T13:48:18;7.10;99.90
60353;DHT22;46196;52.970;6.954;2024-02-23T13:50:45;7.20;99.90
60353;DHT22;46196;52.970;6.954;2024-02-23T13:53:12;7.20;99.90
60353;DHT22;46196;52.970;6.954;2024-02-23T13:55:40;7.30;99.90
60353;DHT22;46196;52.970;6.954;2024-02-23T13:58:09;7.30;99.90
60353;DHT22;46196;52.970;6.954;2024-02-23T14:00:35;7.30;99.90
60353;DHT22;46196;52.970;6.954;2024-02-23T14:03:01;7.20;99.90
60353;DHT22;46196;52.970;6.954;2024-02-23T14:05:27;7.20;99.90
60353;DHT22;46196;52.970;6.954;2024-02-23T14:07:53;7.20;99.90
60353;DHT22;46196;52.970;6.954;2024-02-23T14:10:19;7.20;99.90
60353;DHT22;46196;52.970;6.954;2024-02-23T14:12:45;7.20;99.90
60353;DHT22;46196;52.970;6.954;2024-02-23T14:15:11;7.20;99.90
60353;DHT22;46196;52.970;6.954;2024-02-23T14:17:38;7.20;99.90
60353;DHT22;46196;52.970;6.954;2024-02-23T14:20:04;7.20;99.90
60353;DHT22;46196;52.970;6.954;2024-02-23T14:22:30;7.20;99.90
60353;DHT22;46196;52.970;6.954;2024-02-23T14:24:57;7.20;99.90
60353;DHT22;46196;52.970;6.954;2024-02-23T14:27:23;7.30;99.90
60353;DHT22;46196;52.970;6.954;2024-02-23T14:29:49;7.30;99.90
60353;DHT22;46196;52.970;6.954;2024-02-23T14:32:16;7.40;99.90
60353;DHT22;46196;52.970;6.954;2024-02-23T14:34:43;7.40;99.90
60353;DHT22;46196;52.970;6.954;2024-02-23T14:37:08;7.40;99.90
60353;DHT22;46196;52.970;6.954;2024-02-23T14:39:34;7.50;99.90
60353;DHT22;46196;52.970;6.954;2024-02-23T14:42:00;7.40;99.90
60353;DHT22;46196;52.970;6.954;2024-02-23T14:44:26;7.40;99.90
60353;DHT22;46196;52.970;6.954;2024-02-23T14:46:53;7.50;99.90
60353;DHT22;46196;52.970;6.954;2024-02-23T14:49:18;7.50;99.90
60353;DHT22;46196;52.970;6.954;2024-02-23T14:51:44;7.50;99.90
60353;DHT22;46196;52.970;6.954;2024-02-23T14:54:12;7.40;99.90
60353;DHT22;46196;52.970;6.954;2024-02-23T14:56:38;7.40;99.90
60353;DHT22;46196;52.970;6.954;2024-02-23T14:59:06;7.40;99.90
60353;DHT22;46196;52.970;6.954;2024-02-23T15:01:38;7.30;99.90
60353;DHT22;46196;52.970;6.954;2024-02-23T15:04:06;7.40;99.90
60353;DHT22;46196;52.970;6.954;2024-02-23T15:06:32;7.40;99.90
60353;DHT22;46196;52.970;6.954;2024-02-23T15:08:57;7.40;99.90
60353;DHT22;46196;52.970;6.954;2024-02-23T15:11:23;7.40;99.90
60353;DHT22;46196;52.970;6.954;2024-02-23T15:13:49;7.50;99.90
60353;DHT22;46196;52.970;6.954;2024-02-23T15:16:17;7.50;99.90
60353;DHT22;46196;52.970;6.954;2024-02-23T15:18:42;7.40;99.90
60353;DHT22;46196;52.970;6.954;2024-02-23T15:21:08;7.40;99.90
60353;DHT22;46196;52.970;6.954;2024-02-23T15:23:34;7.40;99.90
60353;DHT22;46196;52.970;6.954;2024-02-23T15:25:59;7.40;99.90
60353;DHT22;46196;52.970;6.954;2024-02-23T15:28:25;7.40;99.90
60353;DHT22;46196;52.970;6.954;2024-02-23T15:30:51;7.40;99.90
60353;DHT22;46196;52.970;6.954;2024-02-23T15:33:18;7.30;99.90
60353;DHT22;46196;52.970;6.954;2024-02-23T15:35:43;7.40;99.90
60353;DHT22;46196;52.970;6.954;2024-02-23T15:38:09;7.40;99.90
60353;DHT22;46196;52.970;6.954;2024-02-23T15:40:35;7.40;99.90
60353;DHT22;46196;52.970;6.954;2024-02-23T15:43:00;7.40;99.90
60353;DHT22;46196;52.970;6.954;2024-02-23T15:45:27;7.50;99.90
60353;DHT22;46196;52.970;6.954;2024-02-23T15:47:53;7.40;99.90
60353;DHT22;46196;52.970;6.954;2024-02-23T15:50:18;7.50;99.90
60353;DHT22;46196;52.970;6.954;2024-02-23T15:52:45;7.40;99.90
60353;DHT22;46196;52.970;6.954;2024-02-23T15:55:11;7.40;99.90
60353;DHT22;46196;52.970;6.954;2024-02-23T15:57:38;7.40;99.90
60353;DHT22;46196;52.970;6.954;2024-02-23T16:00:05;7.40;99.90
60353;DHT22;46196;52.970;6.954;2024-02-23T16:02:33;7.30;99.90
60353;DHT22;46196;52.970;6.954;2024-02-23T16:05:01;7.30;99.90
60353;DHT22;46196;52.970;6.954;2024-02-23T16:07:27;7.30;99.90
60353;DHT22;46196;52.970;6.954;2024-02-23T16:09:53;7.30;99.90
60353;DHT22;46196;52.970;6.954;2024-02-23T16:12:19;7.30;99.90
60353;DHT22;46196;52.970;6.954;2024-02-23T16:14:44;7.30;99.90
60353;DHT22;46196;52.970;6.954;2024-02-23T16:17:10;7.30;99.90
60353;DHT22;46196;52.970;6.954;2024-02-23T16:19:36;7.30;99.90
60353;DHT22;46196;52.970;6.954;2024-02-23T16:22:02;7.30;99.90
60353;DHT22;46196;52.970;6.954;2024-02-23T16:24:28;7.30;99.90
60353;DHT22;46196;52.970;6.954;2024-02-23T16:26:54;7.30;99.90
60353;DHT22;46196;52.970;6.954;2024-02-23T16:29:19;7.30;99.90
60353;DHT22;46196;52.970;6.954;2024-02-23T16:31:45;7.20;99.90
60353;DHT22;46196;52.970;6.954;2024-02-23T16:34:11;7.30;99.90
60353;DHT22;46196;52.970;6.954;2024-02-23T16:36:37;7.30;99.90
60353;DHT22;46196;52.970;6.954;2024-02-23T16:39:03;7.20;99.90
60353;DHT22;46196;52.970;6.954;2024-02-23T16:41:35;7.20;99.90
60353;DHT22;46196;52.970;6.954;2024-02-23T16:44:01;7.20;99.90
60353;DHT22;46196;52.970;6.954;2024-02-23T16:46:27;7.20;99.90
60353;DHT22;46196;52.970;6.954;2024-02-23T16:48:53;7.30;99.90